首页
METAR-TAF:

METAR-TAF

机场 :

特拉帕尼, 意大利

纬度: 37-55N, 经度: 012-30E, 海拔: 7米

当前天气观测

该预报发布于1小时和7分钟前的17:55 UTC
风速4节,风向东转东北
温度 25°C
湿度 83%
气压 1014 hPa
能见度10公里或以上
少量云层高于2000英尺

METAR: LICT 151755Z 06004KT 9999 FEW020 25/22 Q1014 RMK SCT SCT080 VIS MIN 9999 WIND THR13 02004KT BLU

时间: 21:02 (19:02 UTC)

预报

该预报发布于2小时和2分钟前的17:00 UTC
预报有效从15日的 18点(UTC)到 16日的 03点(UTC)
风速5节,风向西转西南
能见度10公里或以上
1500米以下无云,无积雨云

TAF: LICT 151700Z 1518/1603 25005KT CAVOK

超过4000个机场的气象观测和天气预报(METAR&TAF报告)。

可查询的气象台以黄色和红色小点在地图上表示。

将鼠标移到小点上方,可查看气象台名称。

然后点击查看天气观测和预报。

如需切换地图:点击带黑十字的绿色按钮放大地图;点击带横线的绿色按钮缩小地图;或者点击绿色箭头查看邻近地区的地图。


METAR-TAF: